sensor_id;sensor_type;location;lat;lon;timestamp;pressure;altitude;pressure_sealevel;temperature
80581;BMP180;1474;51.460;7.150;2023-08-06T00:01:16;99462.00;;;20.90
80581;BMP180;1474;51.460;7.150;2023-08-06T00:03:44;99460.00;;;20.90
80581;BMP180;1474;51.460;7.150;2023-08-06T00:06:10;99453.00;;;20.90
80581;BMP180;1474;51.460;7.150;2023-08-06T00:08:36;99464.00;;;20.90
80581;BMP180;1474;51.460;7.150;2023-08-06T00:11:01;99459.00;;;20.90
80581;BMP180;1474;51.460;7.150;2023-08-06T00:13:27;99468.00;;;20.90
80581;BMP180;1474;51.460;7.150;2023-08-06T00:15:55;99452.00;;;20.90
80581;BMP180;1474;51.460;7.150;2023-08-06T00:18:21;99458.00;;;20.90
80581;BMP180;1474;51.460;7.150;2023-08-06T00:20:47;99458.00;;;20.90
80581;BMP180;1474;51.460;7.150;2023-08-06T00:23:12;99454.00;;;20.80
80581;BMP180;1474;51.460;7.150;2023-08-06T00:25:38;99457.00;;;20.80
80581;BMP180;1474;51.460;7.150;2023-08-06T00:28:04;99452.00;;;20.90
80581;BMP180;1474;51.460;7.150;2023-08-06T00:30:31;99453.00;;;20.90
80581;BMP180;1474;51.460;7.150;2023-08-06T00:32:56;99443.00;;;20.80
80581;BMP180;1474;51.460;7.150;2023-08-06T00:35:22;99445.00;;;20.80
80581;BMP180;1474;51.460;7.150;2023-08-06T00:37:48;99444.00;;;20.80
80581;BMP180;1474;51.460;7.150;2023-08-06T00:40:14;99440.00;;;20.80
80581;BMP180;1474;51.460;7.150;2023-08-06T00:42:39;99437.00;;;20.80
80581;BMP180;1474;51.460;7.150;2023-08-06T00:45:06;99437.00;;;20.90
80581;BMP180;1474;51.460;7.150;2023-08-06T00:47:31;99432.00;;;20.80
80581;BMP180;1474;51.460;7.150;2023-08-06T00:49:57;99426.00;;;20.80
80581;BMP180;1474;51.460;7.150;2023-08-06T00:52:23;99425.00;;;20.80
80581;BMP180;1474;51.460;7.150;2023-08-06T00:54:49;99420.00;;;20.80
80581;BMP180;1474;51.460;7.150;2023-08-06T00:57:15;99421.00;;;20.80
80581;BMP180;1474;51.460;7.150;2023-08-06T00:59:43;99417.00;;;20.80
80581;BMP180;1474;51.460;7.150;2023-08-06T01:02:09;99417.00;;;20.80
80581;BMP180;1474;51.460;7.150;2023-08-06T01:04:35;99411.00;;;20.80
80581;BMP180;1474;51.460;7.150;2023-08-06T01:07:16;99409.00;;;20.80
80581;BMP180;1474;51.460;7.150;2023-08-06T01:10:15;99405.00;;;20.80
80581;BMP180;1474;51.460;7.150;2023-08-06T01:15:48;99407.00;;;20.80
80581;BMP180;1474;51.460;7.150;2023-08-06T01:18:18;99403.00;;;20.80
80581;BMP180;1474;51.460;7.150;2023-08-06T01:20:44;99405.00;;;20.80
80581;BMP180;1474;51.460;7.150;2023-08-06T01:23:09;99402.00;;;20.80
80581;BMP180;1474;51.460;7.150;2023-08-06T01:29:05;99407.00;;;20.80
80581;BMP180;1474;51.460;7.150;2023-08-06T01:31:37;99411.00;;;20.80
80581;BMP180;1474;51.460;7.150;2023-08-06T01:34:09;99406.00;;;20.80
80581;BMP180;1474;51.460;7.150;2023-08-06T01:36:36;99402.00;;;20.80
80581;BMP180;1474;51.460;7.150;2023-08-06T01:39:02;99403.00;;;20.80
80581;BMP180;1474;51.460;7.150;2023-08-06T01:41:30;99395.00;;;20.80
80581;BMP180;1474;51.460;7.150;2023-08-06T01:43:55;99400.00;;;20.80
80581;BMP180;1474;51.460;7.150;2023-08-06T01:46:21;99397.00;;;20.80
80581;BMP180;1474;51.460;7.150;2023-08-06T01:48:47;99390.00;;;20.80
80581;BMP180;1474;51.460;7.150;2023-08-06T01:51:12;99389.00;;;20.80
80581;BMP180;1474;51.460;7.150;2023-08-06T01:53:38;99389.00;;;20.80
80581;BMP180;1474;51.460;7.150;2023-08-06T01:56:04;99396.00;;;20.80
80581;BMP180;1474;51.460;7.150;2023-08-06T01:58:29;99392.00;;;20.80
80581;BMP180;1474;51.460;7.150;2023-08-06T02:00:55;99386.00;;;20.80
80581;BMP180;1474;51.460;7.150;2023-08-06T02:03:21;99389.00;;;20.80
80581;BMP180;1474;51.460;7.150;2023-08-06T02:05:46;99380.00;;;20.80
80581;BMP180;1474;51.460;7.150;2023-08-06T02:08:12;99384.00;;;20.80
80581;BMP180;1474;51.460;7.150;2023-08-06T02:10:38;99382.00;;;20.80
80581;BMP180;1474;51.460;7.150;2023-08-06T02:13:04;99385.00;;;20.80
80581;BMP180;1474;51.460;7.150;2023-08-06T02:15:29;99376.00;;;20.80
80581;BMP180;1474;51.460;7.150;2023-08-06T02:17:55;99372.00;;;20.80
80581;BMP180;1474;51.460;7.150;2023-08-06T02:20:21;99368.00;;;20.80
80581;BMP180;1474;51.460;7.150;2023-08-06T02:22:47;99369.00;;;20.80
80581;BMP180;1474;51.460;7.150;2023-08-06T02:25:12;99371.00;;;20.80
80581;BMP180;1474;51.460;7.150;2023-08-06T02:27:38;99370.00;;;20.80
80581;BMP180;1474;51.460;7.150;2023-08-06T02:30:05;99372.00;;;20.80
80581;BMP180;1474;51.460;7.150;2023-08-06T02:32:31;99368.00;;;20.80
80581;BMP180;1474;51.460;7.150;2023-08-06T02:35:02;99371.00;;;20.80
80581;BMP180;1474;51.460;7.150;2023-08-06T02:37:28;99362.00;;;20.80
80581;BMP180;1474;51.460;7.150;2023-08-06T02:39:53;99358.00;;;20.80
80581;BMP180;1474;51.460;7.150;2023-08-06T02:42:19;99358.00;;;20.80
80581;BMP180;1474;51.460;7.150;2023-08-06T02:44:45;99362.00;;;20.80
80581;BMP180;1474;51.460;7.150;2023-08-06T02:47:10;99351.00;;;20.70
80581;BMP180;1474;51.460;7.150;2023-08-06T02:49:36;99358.00;;;20.70
80581;BMP180;1474;51.460;7.150;2023-08-06T02:52:02;99350.00;;;20.70
80581;BMP180;1474;51.460;7.150;2023-08-06T02:54:27;99353.00;;;20.70
80581;BMP180;1474;51.460;7.150;2023-08-06T02:56:53;99334.00;;;20.70
80581;BMP180;1474;51.460;7.150;2023-08-06T02:59:19;99335.00;;;20.70
80581;BMP180;1474;51.460;7.150;2023-08-06T03:01:45;99330.00;;;20.70
80581;BMP180;1474;51.460;7.150;2023-08-06T03:04:10;99323.00;;;20.70
80581;BMP180;1474;51.460;7.150;2023-08-06T03:06:36;99322.00;;;20.70
80581;BMP180;1474;51.460;7.150;2023-08-06T03:09:03;99332.00;;;20.70
80581;BMP180;1474;51.460;7.150;2023-08-06T03:11:28;99326.00;;;20.70
80581;BMP180;1474;51.460;7.150;2023-08-06T03:13:54;99325.00;;;20.70
80581;BMP180;1474;51.460;7.150;2023-08-06T03:16:20;99320.00;;;20.70
80581;BMP180;1474;51.460;7.150;2023-08-06T03:18:46;99313.00;;;20.70
80581;BMP180;1474;51.460;7.150;2023-08-06T03:21:11;99321.00;;;20.70
80581;BMP180;1474;51.460;7.150;2023-08-06T03:23:37;99313.00;;;20.70
80581;BMP180;1474;51.460;7.150;2023-08-06T03:26:03;99309.00;;;20.70
80581;BMP180;1474;51.460;7.150;2023-08-06T03:28:32;99317.00;;;20.70
80581;BMP180;1474;51.460;7.150;2023-08-06T03:31:04;99312.00;;;20.70
80581;BMP180;1474;51.460;7.150;2023-08-06T03:33:30;99315.00;;;20.70
80581;BMP180;1474;51.460;7.150;2023-08-06T03:35:56;99311.00;;;20.70
80581;BMP180;1474;51.460;7.150;2023-08-06T03:38:22;99310.00;;;20.70
80581;BMP180;1474;51.460;7.150;2023-08-06T03:40:49;99297.00;;;20.70
80581;BMP180;1474;51.460;7.150;2023-08-06T03:43:15;99313.00;;;20.70
80581;BMP180;1474;51.460;7.150;2023-08-06T03:45:41;99312.00;;;20.70
80581;BMP180;1474;51.460;7.150;2023-08-06T03:48:08;99307.00;;;20.70
80581;BMP180;1474;51.460;7.150;2023-08-06T03:50:34;99306.00;;;20.70
80581;BMP180;1474;51.460;7.150;2023-08-06T03:53:00;99312.00;;;20.70
80581;BMP180;1474;51.460;7.150;2023-08-06T03:55:29;99309.00;;;20.70
80581;BMP180;1474;51.460;7.150;2023-08-06T03:57:54;99316.00;;;20.70
80581;BMP180;1474;51.460;7.150;2023-08-06T04:00:20;99307.00;;;20.70
80581;BMP180;1474;51.460;7.150;2023-08-06T04:02:46;99304.00;;;20.70
80581;BMP180;1474;51.460;7.150;2023-08-06T04:05:12;99304.00;;;20.70
80581;BMP180;1474;51.460;7.150;2023-08-06T04:07:38;99307.00;;;20.70
80581;BMP180;1474;51.460;7.150;2023-08-06T04:10:05;99312.00;;;20.70
80581;BMP180;1474;51.460;7.150;2023-08-06T04:12:34;99304.00;;;20.70
80581;BMP180;1474;51.460;7.150;2023-08-06T04:15:02;99307.00;;;20.70
80581;BMP180;1474;51.460;7.150;2023-08-06T04:17:29;99307.00;;;20.70
80581;BMP180;1474;51.460;7.150;2023-08-06T04:19:55;99304.00;;;20.70
80581;BMP180;1474;51.460;7.150;2023-08-06T04:22:24;99306.00;;;20.70
80581;BMP180;1474;51.460;7.150;2023-08-06T04:24:49;99304.00;;;20.70
80581;BMP180;1474;51.460;7.150;2023-08-06T04:27:19;99307.00;;;20.70
80581;BMP180;1474;51.460;7.150;2023-08-06T04:29:44;99300.00;;;20.60
80581;BMP180;1474;51.460;7.150;2023-08-06T04:32:10;99309.00;;;20.60
80581;BMP180;1474;51.460;7.150;2023-08-06T04:34:37;99299.00;;;20.70
80581;BMP180;1474;51.460;7.150;2023-08-06T04:37:04;99305.00;;;20.60
80581;BMP180;1474;51.460;7.150;2023-08-06T04:39:30;99306.00;;;20.70
80581;BMP180;1474;51.460;7.150;2023-08-06T04:41:56;99308.00;;;20.60
80581;BMP180;1474;51.460;7.150;2023-08-06T04:44:25;99299.00;;;20.60
80581;BMP180;1474;51.460;7.150;2023-08-06T04:46:51;99307.00;;;20.60
80581;BMP180;1474;51.460;7.150;2023-08-06T04:49:20;99306.00;;;20.60
80581;BMP180;1474;51.460;7.150;2023-08-06T04:51:45;99308.00;;;20.60
80581;BMP180;1474;51.460;7.150;2023-08-06T04:54:11;99304.00;;;20.70
80581;BMP180;1474;51.460;7.150;2023-08-06T04:56:37;99297.00;;;20.70
80581;BMP180;1474;51.460;7.150;2023-08-06T04:59:03;99299.00;;;20.70
80581;BMP180;1474;51.460;7.150;2023-08-06T05:01:28;99297.00;;;20.70
80581;BMP180;1474;51.460;7.150;2023-08-06T05:03:54;99293.00;;;20.70
80581;BMP180;1474;51.460;7.150;2023-08-06T05:06:20;99300.00;;;20.70
80581;BMP180;1474;51.460;7.150;2023-08-06T05:08:46;99295.00;;;20.70
80581;BMP180;1474;51.460;7.150;2023-08-06T05:11:11;99304.00;;;20.70
80581;BMP180;1474;51.460;7.150;2023-08-06T05:13:37;99306.00;;;20.70
80581;BMP180;1474;51.460;7.150;2023-08-06T05:16:03;99307.00;;;20.70
80581;BMP180;1474;51.460;7.150;2023-08-06T05:18:29;99308.00;;;20.70
80581;BMP180;1474;51.460;7.150;2023-08-06T05:20:56;99314.00;;;20.70
80581;BMP180;1474;51.460;7.150;2023-08-06T05:23:22;99320.00;;;20.70
80581;BMP180;1474;51.460;7.150;2023-08-06T05:25:48;99316.00;;;20.70
80581;BMP180;1474;51.460;7.150;2023-08-06T05:28:14;99323.00;;;20.70
80581;BMP180;1474;51.460;7.150;2023-08-06T05:30:40;99325.00;;;20.70
80581;BMP180;1474;51.460;7.150;2023-08-06T05:33:09;99325.00;;;20.70
80581;BMP180;1474;51.460;7.150;2023-08-06T05:35:34;99320.00;;;20.70
80581;BMP180;1474;51.460;7.150;2023-08-06T05:38:03;99320.00;;;20.70
80581;BMP180;1474;51.460;7.150;2023-08-06T05:40:29;99322.00;;;20.70
80581;BMP180;1474;51.460;7.150;2023-08-06T05:42:55;99319.00;;;20.70
80581;BMP180;1474;51.460;7.150;2023-08-06T05:45:21;99319.00;;;20.70
80581;BMP180;1474;51.460;7.150;2023-08-06T05:47:48;99320.00;;;20.70
80581;BMP180;1474;51.460;7.150;2023-08-06T05:50:14;99327.00;;;20.80
80581;BMP180;1474;51.460;7.150;2023-08-06T05:52:40;99325.00;;;20.70
80581;BMP180;1474;51.460;7.150;2023-08-06T05:55:06;99327.00;;;20.80
80581;BMP180;1474;51.460;7.150;2023-08-06T05:57:32;99324.00;;;20.70
80581;BMP180;1474;51.460;7.150;2023-08-06T05:59:58;99336.00;;;20.80
80581;BMP180;1474;51.460;7.150;2023-08-06T06:02:26;99337.00;;;20.80
80581;BMP180;1474;51.460;7.150;2023-08-06T06:04:52;99333.00;;;20.80
80581;BMP180;1474;51.460;7.150;2023-08-06T06:07:18;99336.00;;;20.80
80581;BMP180;1474;51.460;7.150;2023-08-06T06:09:44;99333.00;;;20.80
80581;BMP180;1474;51.460;7.150;2023-08-06T06:12:09;99343.00;;;20.80
80581;BMP180;1474;51.460;7.150;2023-08-06T06:14:35;99346.00;;;20.80
80581;BMP180;1474;51.460;7.150;2023-08-06T06:17:01;99340.00;;;20.80
80581;BMP180;1474;51.460;7.150;2023-08-06T06:19:26;99338.00;;;20.80
80581;BMP180;1474;51.460;7.150;2023-08-06T06:21:53;99350.00;;;20.90
80581;BMP180;1474;51.460;7.150;2023-08-06T06:24:19;99345.00;;;20.90
80581;BMP180;1474;51.460;7.150;2023-08-06T06:26:44;99348.00;;;20.90
80581;BMP180;1474;51.460;7.150;2023-08-06T06:29:10;99341.00;;;20.90
80581;BMP180;1474;51.460;7.150;2023-08-06T06:31:36;99355.00;;;20.90
80581;BMP180;1474;51.460;7.150;2023-08-06T06:34:01;99347.00;;;20.90
80581;BMP180;1474;51.460;7.150;2023-08-06T06:36:27;99344.00;;;20.90
80581;BMP180;1474;51.460;7.150;2023-08-06T06:38:53;99346.00;;;20.90
80581;BMP180;1474;51.460;7.150;2023-08-06T06:41:18;99346.00;;;20.90
80581;BMP180;1474;51.460;7.150;2023-08-06T06:43:47;99335.00;;;20.90
80581;BMP180;1474;51.460;7.150;2023-08-06T06:46:13;99338.00;;;20.90
80581;BMP180;1474;51.460;7.150;2023-08-06T06:48:39;99341.00;;;20.90
80581;BMP180;1474;51.460;7.150;2023-08-06T06:51:07;99340.00;;;21.00
80581;BMP180;1474;51.460;7.150;2023-08-06T06:53:35;99345.00;;;21.00
80581;BMP180;1474;51.460;7.150;2023-08-06T06:56:04;99340.00;;;21.00
80581;BMP180;1474;51.460;7.150;2023-08-06T06:58:33;99344.00;;;21.00
80581;BMP180;1474;51.460;7.150;2023-08-06T07:00:59;99344.00;;;21.00
80581;BMP180;1474;51.460;7.150;2023-08-06T07:03:24;99343.00;;;21.00
80581;BMP180;1474;51.460;7.150;2023-08-06T07:05:50;99340.00;;;21.10
80581;BMP180;1474;51.460;7.150;2023-08-06T07:08:16;99347.00;;;21.10
80581;BMP180;1474;51.460;7.150;2023-08-06T07:10:42;99344.00;;;21.10
80581;BMP180;1474;51.460;7.150;2023-08-06T07:13:11;99349.00;;;21.10
80581;BMP180;1474;51.460;7.150;2023-08-06T07:15:37;99344.00;;;21.10
80581;BMP180;1474;51.460;7.150;2023-08-06T07:18:03;99351.00;;;21.10
80581;BMP180;1474;51.460;7.150;2023-08-06T07:20:29;99362.00;;;21.00
80581;BMP180;1474;51.460;7.150;2023-08-06T07:22:58;99362.00;;;21.00
80581;BMP180;1474;51.460;7.150;2023-08-06T07:25:24;99364.00;;;21.00
80581;BMP180;1474;51.460;7.150;2023-08-06T07:27:50;99371.00;;;21.00
80581;BMP180;1474;51.460;7.150;2023-08-06T07:30:15;99370.00;;;20.90
80581;BMP180;1474;51.460;7.150;2023-08-06T07:32:41;99361.00;;;20.90
80581;BMP180;1474;51.460;7.150;2023-08-06T07:35:07;99363.00;;;21.00
80581;BMP180;1474;51.460;7.150;2023-08-06T07:37:35;99367.00;;;21.00
80581;BMP180;1474;51.460;7.150;2023-08-06T07:40:00;99370.00;;;21.00
80581;BMP180;1474;51.460;7.150;2023-08-06T07:42:26;99358.00;;;21.10
80581;BMP180;1474;51.460;7.150;2023-08-06T07:44:54;99346.00;;;21.10
80581;BMP180;1474;51.460;7.150;2023-08-06T07:47:21;99355.00;;;21.30
80581;BMP180;1474;51.460;7.150;2023-08-06T07:49:47;99357.00;;;21.30
80581;BMP180;1474;51.460;7.150;2023-08-06T07:52:13;99365.00;;;21.30
80581;BMP180;1474;51.460;7.150;2023-08-06T07:54:39;99367.00;;;21.30
80581;BMP180;1474;51.460;7.150;2023-08-06T07:57:05;99370.00;;;21.30
80581;BMP180;1474;51.460;7.150;2023-08-06T07:59:31;99375.00;;;21.30
80581;BMP180;1474;51.460;7.150;2023-08-06T08:01:56;99370.00;;;21.30
80581;BMP180;1474;51.460;7.150;2023-08-06T08:04:23;99370.00;;;21.30
80581;BMP180;1474;51.460;7.150;2023-08-06T08:06:49;99370.00;;;21.30
80581;BMP180;1474;51.460;7.150;2023-08-06T08:09:15;99374.00;;;21.30
80581;BMP180;1474;51.460;7.150;2023-08-06T08:11:43;99366.00;;;21.30
80581;BMP180;1474;51.460;7.150;2023-08-06T08:14:09;99371.00;;;21.40
80581;BMP180;1474;51.460;7.150;2023-08-06T08:16:35;99368.00;;;21.50
80581;BMP180;1474;51.460;7.150;2023-08-06T08:19:00;99365.00;;;21.50
80581;BMP180;1474;51.460;7.150;2023-08-06T08:21:26;99356.00;;;21.60
80581;BMP180;1474;51.460;7.150;2023-08-06T08:23:52;99363.00;;;21.60
80581;BMP180;1474;51.460;7.150;2023-08-06T08:26:18;99347.00;;;21.00
80581;BMP180;1474;51.460;7.150;2023-08-06T08:28:44;99353.00;;;21.00
80581;BMP180;1474;51.460;7.150;2023-08-06T08:31:11;99353.00;;;20.70
80581;BMP180;1474;51.460;7.150;2023-08-06T08:33:40;99365.00;;;20.70
80581;BMP180;1474;51.460;7.150;2023-08-06T08:36:06;99372.00;;;20.30
80581;BMP180;1474;51.460;7.150;2023-08-06T08:38:31;99380.00;;;20.30
80581;BMP180;1474;51.460;7.150;2023-08-06T08:40:57;99388.00;;;20.20
80581;BMP180;1474;51.460;7.150;2023-08-06T08:43:24;99387.00;;;20.10
80581;BMP180;1474;51.460;7.150;2023-08-06T08:45:54;99396.00;;;20.10
80581;BMP180;1474;51.460;7.150;2023-08-06T08:48:26;99395.00;;;19.90
80581;BMP180;1474;51.460;7.150;2023-08-06T08:50:53;99401.00;;;20.00
80581;BMP180;1474;51.460;7.150;2023-08-06T08:53:21;99405.00;;;20.60
80581;BMP180;1474;51.460;7.150;2023-08-06T08:55:48;99414.00;;;20.90
80581;BMP180;1474;51.460;7.150;2023-08-06T08:58:18;99410.00;;;20.90
80581;BMP180;1474;51.460;7.150;2023-08-06T09:00:46;99407.00;;;21.00
80581;BMP180;1474;51.460;7.150;2023-08-06T09:03:14;99407.00;;;21.00
80581;BMP180;1474;51.460;7.150;2023-08-06T09:05:44;99410.00;;;21.00
80581;BMP180;1474;51.460;7.150;2023-08-06T09:08:15;99414.00;;;21.00
80581;BMP180;1474;51.460;7.150;2023-08-06T09:10:43;99410.00;;;21.00
80581;BMP180;1474;51.460;7.150;2023-08-06T09:13:10;99412.00;;;21.00
80581;BMP180;1474;51.460;7.150;2023-08-06T09:15:38;99406.00;;;21.00
80581;BMP180;1474;51.460;7.150;2023-08-06T09:18:11;99407.00;;;21.10
80581;BMP180;1474;51.460;7.150;2023-08-06T09:20:39;99412.00;;;21.10
80581;BMP180;1474;51.460;7.150;2023-08-06T09:23:10;99417.00;;;21.10
80581;BMP180;1474;51.460;7.150;2023-08-06T09:25:39;99412.00;;;21.10
80581;BMP180;1474;51.460;7.150;2023-08-06T09:28:06;99413.00;;;21.10
80581;BMP180;1474;51.460;7.150;2023-08-06T09:30:35;99417.00;;;21.10
80581;BMP180;1474;51.460;7.150;2023-08-06T09:33:01;99423.00;;;21.10
80581;BMP180;1474;51.460;7.150;2023-08-06T09:35:31;99418.00;;;21.10
80581;BMP180;1474;51.460;7.150;2023-08-06T09:38:07;99419.00;;;21.10
80581;BMP180;1474;51.460;7.150;2023-08-06T09:40:34;99425.00;;;21.10
80581;BMP180;1474;51.460;7.150;2023-08-06T09:43:01;99424.00;;;21.10
80581;BMP180;1474;51.460;7.150;2023-08-06T09:45:40;99420.00;;;21.10
80581;BMP180;1474;51.460;7.150;2023-08-06T09:48:08;99430.00;;;21.10
80581;BMP180;1474;51.460;7.150;2023-08-06T09:50:36;99436.00;;;21.10
80581;BMP180;1474;51.460;7.150;2023-08-06T09:53:07;99433.00;;;21.10
80581;BMP180;1474;51.460;7.150;2023-08-06T09:55:37;99431.00;;;21.10
80581;BMP180;1474;51.460;7.150;2023-08-06T09:58:03;99434.00;;;21.10
80581;BMP180;1474;51.460;7.150;2023-08-06T10:00:29;99432.00;;;21.20
80581;BMP180;1474;51.460;7.150;2023-08-06T10:03:00;99434.00;;;21.10
80581;BMP180;1474;51.460;7.150;2023-08-06T10:05:27;99431.00;;;21.10
80581;BMP180;1474;51.460;7.150;2023-08-06T10:07:53;99434.00;;;21.20
80581;BMP180;1474;51.460;7.150;2023-08-06T10:10:21;99430.00;;;21.10
80581;BMP180;1474;51.460;7.150;2023-08-06T10:12:54;99435.00;;;21.20
80581;BMP180;1474;51.460;7.150;2023-08-06T10:15:28;99431.00;;;21.20
80581;BMP180;1474;51.460;7.150;2023-08-06T10:17:58;99428.00;;;21.30
80581;BMP180;1474;51.460;7.150;2023-08-06T10:20:25;99423.00;;;21.30
80581;BMP180;1474;51.460;7.150;2023-08-06T10:23:05;99423.00;;;21.30
80581;BMP180;1474;51.460;7.150;2023-08-06T10:25:34;99417.00;;;21.40
80581;BMP180;1474;51.460;7.150;2023-08-06T10:28:07;99422.00;;;21.40
80581;BMP180;1474;51.460;7.150;2023-08-06T10:30:41;99416.00;;;21.30
80581;BMP180;1474;51.460;7.150;2023-08-06T10:33:07;99415.00;;;21.40
80581;BMP180;1474;51.460;7.150;2023-08-06T10:38:19;99427.00;;;21.50
80581;BMP180;1474;51.460;7.150;2023-08-06T10:41:00;99419.00;;;21.60
80581;BMP180;1474;51.460;7.150;2023-08-06T10:43:30;99414.00;;;21.80
80581;BMP180;1474;51.460;7.150;2023-08-06T10:45:58;99416.00;;;21.90
80581;BMP180;1474;51.460;7.150;2023-08-06T10:48:41;99417.00;;;21.80
80581;BMP180;1474;51.460;7.150;2023-08-06T10:51:12;99426.00;;;21.80
80581;BMP180;1474;51.460;7.150;2023-08-06T10:53:43;99419.00;;;21.80
80581;BMP180;1474;51.460;7.150;2023-08-06T10:56:21;99426.00;;;21.80
80581;BMP180;1474;51.460;7.150;2023-08-06T10:58:54;99429.00;;;21.70
80581;BMP180;1474;51.460;7.150;2023-08-06T11:01:23;99442.00;;;21.70
80581;BMP180;1474;51.460;7.150;2023-08-06T11:03:51;99442.00;;;21.60
80581;BMP180;1474;51.460;7.150;2023-08-06T11:06:20;99438.00;;;21.60
80581;BMP180;1474;51.460;7.150;2023-08-06T11:08:54;99436.00;;;21.50
80581;BMP180;1474;51.460;7.150;2023-08-06T11:11:24;99444.00;;;21.50
80581;BMP180;1474;51.460;7.150;2023-08-06T11:13:51;99453.00;;;21.50
80581;BMP180;1474;51.460;7.150;2023-08-06T11:16:21;99450.00;;;21.50
80581;BMP180;1474;51.460;7.150;2023-08-06T11:18:48;99453.00;;;21.50
80581;BMP180;1474;51.460;7.150;2023-08-06T11:21:19;99447.00;;;21.40
80581;BMP180;1474;51.460;7.150;2023-08-06T11:23:44;99451.00;;;21.40
80581;BMP180;1474;51.460;7.150;2023-08-06T11:26:10;99459.00;;;21.40
80581;BMP180;1474;51.460;7.150;2023-08-06T11:28:36;99451.00;;;21.20
80581;BMP180;1474;51.460;7.150;2023-08-06T11:31:02;99453.00;;;21.20
80581;BMP180;1474;51.460;7.150;2023-08-06T11:33:29;99446.00;;;21.20
80581;BMP180;1474;51.460;7.150;2023-08-06T11:35:59;99447.00;;;21.20
80581;BMP180;1474;51.460;7.150;2023-08-06T11:38:40;99452.00;;;21.20
80581;BMP180;1474;51.460;7.150;2023-08-06T11:41:07;99446.00;;;21.50
80581;BMP180;1474;51.460;7.150;2023-08-06T11:43:32;99445.00;;;21.60
80581;BMP180;1474;51.460;7.150;2023-08-06T11:45:58;99454.00;;;21.70
80581;BMP180;1474;51.460;7.150;2023-08-06T11:48:25;99452.00;;;21.50
80581;BMP180;1474;51.460;7.150;2023-08-06T11:50:54;99462.00;;;21.50
80581;BMP180;1474;51.460;7.150;2023-08-06T11:53:20;99469.00;;;21.60
80581;BMP180;1474;51.460;7.150;2023-08-06T11:55:46;99480.00;;;21.50
80581;BMP180;1474;51.460;7.150;2023-08-06T11:58:11;99484.00;;;21.40
80581;BMP180;1474;51.460;7.150;2023-08-06T12:00:38;99491.00;;;21.40
80581;BMP180;1474;51.460;7.150;2023-08-06T12:03:05;99496.00;;;21.30
80581;BMP180;1474;51.460;7.150;2023-08-06T12:05:31;99493.00;;;21.20
80581;BMP180;1474;51.460;7.150;2023-08-06T12:08:02;99501.00;;;21.10
80581;BMP180;1474;51.460;7.150;2023-08-06T12:10:32;99501.00;;;21.00
80581;BMP180;1474;51.460;7.150;2023-08-06T12:12:59;99506.00;;;21.40
80581;BMP180;1474;51.460;7.150;2023-08-06T12:15:25;99508.00;;;21.30
80581;BMP180;1474;51.460;7.150;2023-08-06T12:17:51;99510.00;;;21.20
80581;BMP180;1474;51.460;7.150;2023-08-06T12:20:17;99508.00;;;21.10
80581;BMP180;1474;51.460;7.150;2023-08-06T12:22:42;99513.00;;;21.00
80581;BMP180;1474;51.460;7.150;2023-08-06T12:25:10;99510.00;;;21.10
80581;BMP180;1474;51.460;7.150;2023-08-06T12:27:43;99514.00;;;21.10
80581;BMP180;1474;51.460;7.150;2023-08-06T12:30:11;99526.00;;;21.30
80581;BMP180;1474;51.460;7.150;2023-08-06T12:32:38;99527.00;;;21.50
80581;BMP180;1474;51.460;7.150;2023-08-06T12:35:04;99528.00;;;21.50
80581;BMP180;1474;51.460;7.150;2023-08-06T12:37:30;99536.00;;;21.50
80581;BMP180;1474;51.460;7.150;2023-08-06T12:39:56;99542.00;;;21.50
80581;BMP180;1474;51.460;7.150;2023-08-06T12:42:22;99549.00;;;21.50
80581;BMP180;1474;51.460;7.150;2023-08-06T12:44:51;99556.00;;;21.60
80581;BMP180;1474;51.460;7.150;2023-08-06T12:47:18;99565.00;;;21.50
80581;BMP180;1474;51.460;7.150;2023-08-06T12:49:44;99563.00;;;21.50
80581;BMP180;1474;51.460;7.150;2023-08-06T12:52:09;99579.00;;;21.50
80581;BMP180;1474;51.460;7.150;2023-08-06T12:54:38;99579.00;;;21.50
80581;BMP180;1474;51.460;7.150;2023-08-06T12:57:04;99572.00;;;21.50
80581;BMP180;1474;51.460;7.150;2023-08-06T12:59:31;99578.00;;;21.50
80581;BMP180;1474;51.460;7.150;2023-08-06T13:02:03;99586.00;;;21.50
80581;BMP180;1474;51.460;7.150;2023-08-06T13:04:29;99586.00;;;21.40
80581;BMP180;1474;51.460;7.150;2023-08-06T13:06:55;99594.00;;;21.40
80581;BMP180;1474;51.460;7.150;2023-08-06T13:09:20;99595.00;;;21.40
80581;BMP180;1474;51.460;7.150;2023-08-06T13:11:47;99597.00;;;21.40
80581;BMP180;1474;51.460;7.150;2023-08-06T13:14:15;99601.00;;;21.40
80581;BMP180;1474;51.460;7.150;2023-08-06T13:16:47;99610.00;;;21.40
80581;BMP180;1474;51.460;7.150;2023-08-06T13:19:13;99610.00;;;21.40
80581;BMP180;1474;51.460;7.150;2023-08-06T13:24:08;99611.00;;;21.40
80581;BMP180;1474;51.460;7.150;2023-08-06T13:26:35;99613.00;;;21.40
80581;BMP180;1474;51.460;7.150;2023-08-06T13:29:01;99612.00;;;21.30
80581;BMP180;1474;51.460;7.150;2023-08-06T13:31:28;99617.00;;;21.30
80581;BMP180;1474;51.460;7.150;2023-08-06T13:33:57;99609.00;;;21.30
80581;BMP180;1474;51.460;7.150;2023-08-06T13:36:27;99611.00;;;21.30
80581;BMP180;1474;51.460;7.150;2023-08-06T13:38:53;99615.00;;;21.30
80581;BMP180;1474;51.460;7.150;2023-08-06T13:41:19;99619.00;;;21.30
80581;BMP180;1474;51.460;7.150;2023-08-06T13:43:45;99627.00;;;21.30
80581;BMP180;1474;51.460;7.150;2023-08-06T13:46:11;99628.00;;;21.30
80581;BMP180;1474;51.460;7.150;2023-08-06T13:48:42;99630.00;;;21.30
80581;BMP180;1474;51.460;7.150;2023-08-06T13:51:09;99631.00;;;21.20
80581;BMP180;1474;51.460;7.150;2023-08-06T13:53:39;99631.00;;;21.20
80581;BMP180;1474;51.460;7.150;2023-08-06T13:56:06;99643.00;;;21.20
80581;BMP180;1474;51.460;7.150;2023-08-06T13:58:33;99636.00;;;21.20
80581;BMP180;1474;51.460;7.150;2023-08-06T14:00:59;99644.00;;;21.20
80581;BMP180;1474;51.460;7.150;2023-08-06T14:03:25;99650.00;;;21.20
80581;BMP180;1474;51.460;7.150;2023-08-06T14:05:51;99641.00;;;21.20
80581;BMP180;1474;51.460;7.150;2023-08-06T14:08:17;99646.00;;;21.20
80581;BMP180;1474;51.460;7.150;2023-08-06T14:10:45;99653.00;;;21.20
80581;BMP180;1474;51.460;7.150;2023-08-06T14:13:11;99654.00;;;21.20
80581;BMP180;1474;51.460;7.150;2023-08-06T14:15:38;99647.00;;;21.20
80581;BMP180;1474;51.460;7.150;2023-08-06T14:18:08;99652.00;;;21.20
80581;BMP180;1474;51.460;7.150;2023-08-06T14:20:34;99646.00;;;21.20
80581;BMP180;1474;51.460;7.150;2023-08-06T14:23:00;99654.00;;;21.20
80581;BMP180;1474;51.460;7.150;2023-08-06T14:25:26;99650.00;;;21.20
80581;BMP180;1474;51.460;7.150;2023-08-06T14:27:51;99651.00;;;21.20
80581;BMP180;1474;51.460;7.150;2023-08-06T14:30:17;99661.00;;;21.20
80581;BMP180;1474;51.460;7.150;2023-08-06T14:32:46;99656.00;;;21.20